Time;durP1;ratioP1;P1;durP2;ratioP2;P2;SDS_P1;SDS_P2;PMS_P1;PMS_P2;Temp;Humidity;BMP_temperature;BMP_pressure;BME280_temperature;BME280_humidity;BME280_pressure;Samples;Min_cycle;Max_cycle;Signal;HPM_P1;HPM_P2
2023/08/30 00:01:27;;;;;;;15.07;13.63;;;18.90;91.50;;;;;;5053078;28;20465;-59
2023/08/30 00:03:54;;;;;;;15.80;12.20;;;18.90;91.50;;;;;;5052758;28;20965;-59
2023/08/30 00:06:21;;;;;;;12.80;11.50;;;18.90;91.50;;;;;;5053009;28;20864;-59
2023/08/30 00:08:48;;;;;;;12.10;10.97;;;18.90;91.40;;;;;;5052692;28;20452;-59
2023/08/30 00:11:15;;;;;;;12.00;10.47;;;18.80;91.40;;;;;;5052888;28;20465;-60
2023/08/30 00:13:43;;;;;;;16.23;12.07;;;18.80;91.50;;;;;;5053015;28;20473;-59
2023/08/30 00:16:10;;;;;;;12.67;11.33;;;18.80;91.40;;;;;;5053045;28;20446;-59
2023/08/30 00:18:36;;;;;;;12.07;10.70;;;18.80;91.50;;;;;;5052929;28;20446;-59
2023/08/30 00:21:03;;;;;;;13.93;10.67;;;18.80;91.50;;;;;;5052777;28;20499;-59
2023/08/30 00:23:30;;;;;;;17.23;10.00;;;18.70;91.40;;;;;;5053008;28;20433;-59
2023/08/30 00:25:56;;;;;;;12.97;9.30;;;18.70;91.40;;;;;;5052856;28;20449;-59
2023/08/30 00:28:23;;;;;;;14.47;9.27;;;18.70;91.40;;;;;;5052757;28;20591;-60
2023/08/30 00:30:55;;;;;;;13.50;10.40;;;18.70;91.40;;;;;;5052853;28;20446;-59
2023/08/30 00:33:22;;;;;;;13.00;9.57;;;18.60;91.30;;;;;;5052847;28;20457;-59
2023/08/30 00:35:57;;;;;;;12.10;10.70;;;18.60;91.30;;;;;;5052508;28;20437;-59
2023/08/30 00:38:23;;;;;;;11.60;10.20;;;18.50;91.10;;;;;;5052847;28;20457;-59
2023/08/30 00:40:50;;;;;;;11.97;10.10;;;18.50;91.60;;;;;;5052438;28;20478;-59
2023/08/30 00:43:17;;;;;;;10.43;9.00;;;18.50;91.40;;;;;;5052706;28;20465;-59
2023/08/30 00:45:44;;;;;;;14.53;9.83;;;18.50;91.30;;;;;;5052852;28;20452;-60
2023/08/30 00:48:12;;;;;;;17.17;8.93;;;18.50;91.20;;;;;;5052672;28;20477;-59
2023/08/30 00:50:40;;;;;;;9.53;8.47;;;18.40;91.10;;;;;;5052749;28;20499;-59
2023/08/30 00:53:07;;;;;;;12.03;8.23;;;18.40;91.10;;;;;;5054973;28;20465;-59
2023/08/30 00:55:35;;;;;;;12.27;9.27;;;18.40;91.00;;;;;;5056376;28;20437;-59
2023/08/30 00:58:02;;;;;;;10.47;9.23;;;18.30;91.00;;;;;;5056221;28;20465;-59
2023/08/30 01:00:30;;;;;;;16.57;10.07;;;18.30;91.00;;;;;;5056284;28;20472;-59
2023/08/30 01:02:57;;;;;;;11.93;9.83;;;18.20;90.90;;;;;;5055953;28;20471;-59
2023/08/30 01:05:25;;;;;;;12.93;9.10;;;18.10;90.90;;;;;;5056176;28;20851;-59
2023/08/30 01:07:52;;;;;;;13.73;9.20;;;18.10;91.00;;;;;;5056071;28;20492;-59
2023/08/30 01:10:22;;;;;;;12.60;9.10;;;18.10;91.10;;;;;;5055937;28;20514;-59
2023/08/30 01:12:57;;;;;;;11.53;8.70;;;18.10;91.10;;;;;;5055578;28;20991;-59
2023/08/30 01:15:25;;;;;;;14.33;8.77;;;18.00;91.10;;;;;;5055638;28;20911;-59
2023/08/30 01:17:54;;;;;;;11.90;9.00;;;18.00;91.10;;;;;;5055882;28;20445;-59
2023/08/30 01:20:22;;;;;;;12.87;7.60;;;18.00;91.00;;;;;;5055732;28;20495;-59
2023/08/30 01:23:01;;;;;;;11.17;8.63;;;18.00;91.00;;;;;;5056106;28;20474;-59
2023/08/30 01:25:46;;;;;;;11.23;7.30;;;17.90;91.00;;;;;;5055767;28;20433;-59
2023/08/30 01:28:16;;;;;;;10.00;8.97;;;17.90;91.10;;;;;;5055970;28;20468;-59
2023/08/30 01:30:44;;;;;;;13.03;8.80;;;17.90;91.00;;;;;;5055760;28;20457;-59
2023/08/30 01:33:12;;;;;;;10.00;8.00;;;17.90;91.00;;;;;;5055412;28;20469;-59
2023/08/30 01:35:41;;;;;;;11.37;8.20;;;17.90;91.30;;;;;;5055451;28;20445;-59
2023/08/30 01:38:08;;;;;;;12.97;8.57;;;17.80;91.30;;;;;;5055421;28;20477;-59
2023/08/30 01:40:37;;;;;;;12.10;7.50;;;17.70;91.30;;;;;;5055527;28;20446;-60
2023/08/30 01:43:06;;;;;;;16.37;7.90;;;17.70;91.40;;;;;;5055463;28;20870;-59
2023/08/30 01:45:36;;;;;;;12.57;7.53;;;17.70;91.50;;;;;;5055446;28;20452;-59
2023/08/30 01:48:04;;;;;;;9.47;7.97;;;17.70;91.70;;;;;;5055179;28;20477;-59
2023/08/30 01:50:33;;;;;;;10.80;9.33;;;17.60;91.80;;;;;;5054929;28;20989;-59
2023/08/30 01:53:00;;;;;;;17.70;8.83;;;17.60;92.10;;;;;;5055170;28;20472;-59
2023/08/30 01:55:30;;;;;;;12.07;8.10;;;17.60;92.20;;;;;;5054889;28;20943;-59
2023/08/30 01:57:57;;;;;;;14.60;8.30;;;17.60;92.20;;;;;;5054777;28;20438;-60
2023/08/30 02:00:24;;;;;;;14.30;8.77;;;17.70;92.20;;;;;;5054858;28;20962;-59
2023/08/30 02:02:52;;;;;;;10.70;7.97;;;17.70;92.20;;;;;;5054975;28;20484;-59
2023/08/30 02:05:18;;;;;;;16.00;8.50;;;17.70;92.10;;;;;;5054375;28;20457;-59
2023/08/30 02:07:52;;;;;;;13.73;8.17;;;17.70;92.10;;;;;;5054841;28;20485;-59
2023/08/30 02:10:28;;;;;;;10.43;9.33;;;17.70;92.20;;;;;;5054509;28;20468;-59
2023/08/30 02:12:58;;;;;;;13.40;8.60;;;17.70;92.40;;;;;;5054863;28;20469;-59
2023/08/30 02:15:26;;;;;;;12.43;8.40;;;17.70;92.40;;;;;;5054784;28;20456;-59
2023/08/30 02:17:56;;;;;;;14.40;10.13;;;17.70;92.30;;;;;;5054691;28;20445;-59
2023/08/30 02:20:23;;;;;;;14.90;11.10;;;17.60;92.40;;;;;;5054593;28;20475;-59
2023/08/30 02:22:49;;;;;;;12.93;9.70;;;17.60;92.60;;;;;;5054104;28;20485;-59
2023/08/30 02:25:16;;;;;;;15.10;8.40;;;17.60;92.70;;;;;;5054573;28;20445;-60
2023/08/30 02:27:43;;;;;;;10.60;9.57;;;17.50;92.60;;;;;;5054704;28;20481;-59
2023/08/30 02:30:10;;;;;;;12.10;9.50;;;17.50;92.60;;;;;;5054624;28;20970;-59
2023/08/30 02:32:37;;;;;;;18.23;9.70;;;17.50;92.70;;;;;;5054454;28;20472;-59
2023/08/30 02:35:06;;;;;;;19.30;10.00;;;17.50;92.70;;;;;;5054619;28;20468;-59
2023/08/30 02:37:32;;;;;;;13.80;10.10;;;17.60;92.70;;;;;;5054433;28;20442;-59
2023/08/30 02:39:59;;;;;;;11.10;8.30;;;17.60;92.60;;;;;;5054417;28;20441;-59
2023/08/30 02:42:26;;;;;;;10.50;9.47;;;17.50;92.50;;;;;;5054020;28;20469;-59
2023/08/30 02:44:53;;;;;;;11.50;9.70;;;17.50;92.50;;;;;;5054245;28;20477;-59
2023/08/30 02:47:19;;;;;;;14.10;10.17;;;17.50;92.50;;;;;;5053929;28;20469;-59
2023/08/30 02:49:46;;;;;;;15.90;11.40;;;17.40;92.40;;;;;;5054268;28;20516;-59
2023/08/30 02:52:14;;;;;;;12.13;10.13;;;17.40;92.50;;;;;;5056057;28;20469;-60
2023/08/30 02:54:41;;;;;;;11.20;9.97;;;17.40;92.50;;;;;;5055521;28;20445;-59
2023/08/30 02:57:09;;;;;;;11.60;10.00;;;17.40;92.50;;;;;;5054104;28;20441;-59
2023/08/30 02:59:35;;;;;;;13.00;10.33;;;17.30;92.40;;;;;;5053926;28;20452;-59
2023/08/30 03:02:02;;;;;;;11.30;9.87;;;17.30;92.50;;;;;;5053651;28;20465;-60
2023/08/30 03:04:29;;;;;;;14.97;10.90;;;17.30;92.40;;;;;;5053825;28;20446;-59
2023/08/30 03:06:56;;;;;;;15.20;12.07;;;17.30;92.40;;;;;;5053719;28;20450;-59
2023/08/30 03:09:24;;;;;;;13.73;11.30;;;17.30;92.30;;;;;;5053581;28;20492;-60
2023/08/30 03:11:50;;;;;;;18.33;10.30;;;17.30;92.30;;;;;;5053688;28;20473;-59
2023/08/30 03:14:17;;;;;;;12.60;11.20;;;17.20;92.20;;;;;;5053774;28;20448;-59
2023/08/30 03:16:45;;;;;;;11.53;10.33;;;17.20;92.20;;;;;;5052830;28;20441;-59
2023/08/30 03:19:11;;;;;;;13.07;10.53;;;17.20;92.20;;;;;;5053457;28;20445;-59
2023/08/30 03:21:38;;;;;;;15.80;11.40;;;17.20;92.20;;;;;;5053322;28;20473;-59
2023/08/30 03:24:05;;;;;;;10.77;9.67;;;17.20;92.10;;;;;;5053253;28;20827;-59
2023/08/30 03:26:33;;;;;;;11.03;9.93;;;17.10;92.10;;;;;;5053533;28;20449;-58
2023/08/30 03:29:00;;;;;;;15.90;11.20;;;17.10;92.10;;;;;;5053185;28;20477;-58
2023/08/30 03:31:27;;;;;;;17.10;9.80;;;17.10;92.20;;;;;;5053081;28;20462;-58
2023/08/30 03:33:53;;;;;;;11.50;10.40;;;17.00;92.10;;;;;;5053398;28;20450;-59
2023/08/30 03:36:20;;;;;;;14.03;9.90;;;16.90;92.00;;;;;;5053551;28;20453;-59
2023/08/30 03:38:47;;;;;;;12.50;10.50;;;17.00;92.20;;;;;;5053945;28;20445;-59
2023/08/30 03:41:15;;;;;;;12.20;9.93;;;16.90;92.20;;;;;;5053225;28;20477;-60
2023/08/30 03:43:43;;;;;;;13.33;10.00;;;16.90;92.30;;;;;;5053284;28;20468;-59
2023/08/30 03:46:11;;;;;;;13.53;10.80;;;16.90;92.30;;;;;;5053273;28;20438;-59
2023/08/30 03:48:38;;;;;;;15.40;10.80;;;16.90;92.30;;;;;;5053379;28;20488;-59
2023/08/30 03:51:05;;;;;;;17.07;12.70;;;16.80;92.40;;;;;;5053227;28;20449;-58
2023/08/30 03:53:31;;;;;;;16.60;11.57;;;16.80;92.60;;;;;;5053201;28;20445;-58
2023/08/30 03:55:59;;;;;;;13.47;11.23;;;16.70;92.80;;;;;;5053041;28;20441;-58
2023/08/30 03:58:26;;;;;;;13.40;10.27;;;16.70;93.10;;;;;;5053329;28;20484;-58
2023/08/30 04:00:54;;;;;;;15.63;11.47;;;16.70;93.20;;;;;;5053253;28;20452;-58
2023/08/30 04:03:20;;;;;;;12.30;11.10;;;16.70;93.50;;;;;;5053220;28;20449;-58
2023/08/30 04:05:47;;;;;;;18.53;10.70;;;16.80;93.70;;;;;;5053140;28;20442;-59
2023/08/30 04:08:14;;;;;;;14.13;12.50;;;16.80;93.70;;;;;;5052997;28;20481;-58
2023/08/30 04:10:42;;;;;;;14.43;11.13;;;16.80;94.00;;;;;;5052914;28;20940;-58
2023/08/30 04:13:09;;;;;;;16.00;10.60;;;16.80;94.20;;;;;;5052730;28;20978;-59
2023/08/30 04:15:36;;;;;;;16.73;13.10;;;16.80;94.40;;;;;;5053198;28;20445;-60
2023/08/30 04:18:06;;;;;;;16.47;12.03;;;16.90;94.70;;;;;;5053297;28;20763;-59
2023/08/30 04:20:33;;;;;;;14.73;11.67;;;16.90;94.90;;;;;;5052861;28;20453;-59
2023/08/30 04:23:01;;;;;;;13.83;12.03;;;16.80;95.30;;;;;;5052438;28;20476;-59
2023/08/30 04:25:28;;;;;;;15.50;12.37;;;16.80;95.20;;;;;;5052656;28;20821;-59
2023/08/30 04:27:55;;;;;;;15.63;11.60;;;16.80;95.30;;;;;;5055148;28;20445;-59
2023/08/30 04:30:22;;;;;;;25.40;12.67;;;16.80;95.60;;;;;;5056894;28;20441;-59
2023/08/30 04:32:48;;;;;;;21.83;12.27;;;16.80;95.70;;;;;;5056360;28;20989;-59
2023/08/30 04:35:17;;;;;;;20.70;14.50;;;16.80;95.90;;;;;;5056837;28;20441;-59
2023/08/30 04:37:43;;;;;;;21.03;13.57;;;16.80;95.90;;;;;;5056429;28;20442;-59
2023/08/30 04:40:11;;;;;;;17.70;12.47;;;16.90;95.90;;;;;;5056810;28;20858;-59
2023/08/30 04:42:39;;;;;;;14.27;12.33;;;16.90;95.90;;;;;;5056464;28;20465;-59
2023/08/30 04:45:07;;;;;;;12.67;11.30;;;17.00;95.90;;;;;;5056130;28;20825;-59
2023/08/30 04:47:34;;;;;;;15.90;12.80;;;16.90;95.80;;;;;;5056115;28;20823;-59
2023/08/30 04:50:01;;;;;;;14.30;12.90;;;16.90;96.00;;;;;;5056455;28;20856;-59
2023/08/30 04:52:29;;;;;;;14.33;12.10;;;17.00;96.40;;;;;;5056324;28;20461;-59
2023/08/30 04:54:55;;;;;;;15.43;13.07;;;17.00;95.90;;;;;;5056315;28;20441;-59
2023/08/30 04:57:22;;;;;;;14.03;12.73;;;16.90;95.90;;;;;;5056255;28;20466;-59
2023/08/30 04:59:49;;;;;;;14.47;12.97;;;16.90;95.90;;;;;;5056181;28;20449;-59
2023/08/30 05:02:15;;;;;;;17.60;12.90;;;16.90;96.00;;;;;;5056665;28;20465;-59
2023/08/30 05:04:42;;;;;;;12.50;11.30;;;16.90;96.00;;;;;;5055804;28;20984;-59
2023/08/30 05:07:09;;;;;;;14.97;13.30;;;16.90;96.40;;;;;;5056074;28;20448;-59
2023/08/30 05:09:37;;;;;;;13.97;12.67;;;16.90;96.10;;;;;;5055796;28;20484;-59
2023/08/30 05:12:04;;;;;;;14.77;12.53;;;16.90;96.10;;;;;;5055992;28;20461;-59
2023/08/30 05:14:31;;;;;;;13.37;12.17;;;17.00;96.20;;;;;;5055912;28;20453;-59
2023/08/30 05:16:58;;;;;;;14.67;13.00;;;17.00;96.20;;;;;;5055842;28;20452;-59
2023/08/30 05:19:24;;;;;;;12.67;11.33;;;17.00;96.10;;;;;;5055784;28;20438;-59
2023/08/30 05:21:54;;;;;;;15.40;12.03;;;17.10;96.00;;;;;;5055366;28;20489;-59
2023/08/30 05:24:21;;;;;;;11.83;10.67;;;17.00;95.70;;;;;;5056792;28;20507;-59
2023/08/30 05:26:49;;;;;;;14.00;11.73;;;17.10;95.70;;;;;;5055683;28;20445;-59
2023/08/30 05:29:16;;;;;;;13.27;11.63;;;17.10;95.50;;;;;;5055556;28;20481;-59
2023/08/30 05:31:42;;;;;;;13.60;12.20;;;17.10;95.20;;;;;;5055449;28;20505;-59
2023/08/30 05:34:09;;;;;;;13.20;11.97;;;17.10;95.20;;;;;;5055539;28;20450;-59
2023/08/30 05:36:36;;;;;;;13.77;11.60;;;17.20;95.20;;;;;;5055568;28;20442;-60
2023/08/30 05:39:03;;;;;;;13.13;11.83;;;17.20;95.20;;;;;;5054540;28;20433;-60
2023/08/30 05:41:30;;;;;;;13.00;11.73;;;17.20;95.10;;;;;;5055099;28;20468;-60
2023/08/30 05:43:58;;;;;;;11.50;10.30;;;17.20;95.20;;;;;;5055102;28;20537;-60
2023/08/30 05:46:25;;;;;;;12.83;11.50;;;17.10;95.10;;;;;;5055494;28;20455;-59
2023/08/30 05:48:52;;;;;;;12.77;11.57;;;17.20;95.10;;;;;;5055071;28;20493;-60
2023/08/30 05:51:19;;;;;;;17.60;12.47;;;17.20;95.00;;;;;;5055465;28;20468;-60
2023/08/30 05:53:46;;;;;;;13.00;11.80;;;17.30;95.30;;;;;;5055454;28;20532;-60
2023/08/30 05:56:13;;;;;;;11.73;10.47;;;17.30;94.70;;;;;;5055859;28;20449;-60
2023/08/30 05:58:40;;;;;;;14.10;11.33;;;17.30;94.60;;;;;;5055142;28;20446;-60
2023/08/30 06:01:08;;;;;;;13.27;11.03;;;17.30;94.50;;;;;;5055171;28;20441;-60
2023/08/30 06:03:34;;;;;;;11.63;10.53;;;17.40;94.30;;;;;;5054948;28;20445;-60
2023/08/30 06:06:01;;;;;;;12.47;11.27;;;17.50;94.10;;;;;;5055871;28;20480;-60
2023/08/30 06:08:28;;;;;;;11.17;10.23;;;17.50;93.90;;;;;;5054995;28;20441;-60
2023/08/30 06:10:55;;;;;;;12.13;10.57;;;17.50;93.70;;;;;;5054879;28;20446;-60
2023/08/30 06:13:21;;;;;;;10.87;9.10;;;17.50;93.60;;;;;;5054837;28;20458;-60
2023/08/30 06:15:51;;;;;;;11.20;9.97;;;17.50;93.60;;;;;;5054795;28;20468;-60
2023/08/30 06:18:19;;;;;;;9.90;9.00;;;17.50;93.40;;;;;;5054707;28;20442;-60
2023/08/30 06:20:46;;;;;;;14.27;9.47;;;17.50;93.50;;;;;;5054487;28;20818;-60
2023/08/30 06:23:15;;;;;;;10.97;9.97;;;17.50;93.30;;;;;;5054355;28;20839;-60
2023/08/30 06:25:42;;;;;;;10.70;9.70;;;17.60;93.50;;;;;;5054529;28;20544;-60
2023/08/30 06:28:09;;;;;;;9.93;9.10;;;17.60;93.40;;;;;;5054450;28;20441;-57
2023/08/30 06:30:36;;;;;;;10.07;8.57;;;17.60;93.40;;;;;;5054233;28;21077;-60
2023/08/30 06:33:03;;;;;;;12.10;9.40;;;17.70;93.40;;;;;;5054323;28;20470;-60
2023/08/30 06:35:31;;;;;;;10.17;9.13;;;17.70;93.60;;;;;;5054385;28;20450;-60
2023/08/30 06:37:57;;;;;;;14.33;8.60;;;17.70;93.10;;;;;;5054461;28;20445;-60
2023/08/30 06:40:24;;;;;;;12.20;9.67;;;17.70;93.00;;;;;;5054376;28;20437;-60
2023/08/30 06:42:51;;;;;;;9.33;8.10;;;17.70;93.00;;;;;;5053874;28;21021;-60
2023/08/30 06:45:18;;;;;;;9.77;8.73;;;17.70;93.10;;;;;;5054236;28;20477;-60
2023/08/30 06:47:44;;;;;;;8.70;7.90;;;17.70;93.50;;;;;;5054796;28;20446;-58
2023/08/30 06:50:11;;;;;;;13.07;8.90;;;17.80;92.90;;;;;;5053932;28;20481;-59
2023/08/30 06:52:39;;;;;;;9.37;7.27;;;17.80;92.50;;;;;;5054021;28;20465;-60
2023/08/30 06:55:06;;;;;;;8.40;7.60;;;17.80;92.60;;;;;;5054262;28;20855;-60
2023/08/30 06:57:33;;;;;;;8.93;6.90;;;17.90;92.30;;;;;;5054073;28;20456;-60
2023/08/30 07:00:07;;;;;;;9.23;6.43;;;18.00;92.00;;;;;;5053845;28;20465;-60
2023/08/30 07:02:34;;;;;;;17.90;8.37;;;18.10;92.00;;;;;;5053532;28;21054;-60
2023/08/30 07:05:00;;;;;;;12.97;8.07;;;18.20;92.00;;;;;;5053949;28;20445;-58
2023/08/30 07:07:27;;;;;;;9.20;6.40;;;18.30;91.50;;;;;;5053951;28;20444;-59
2023/08/30 07:09:56;;;;;;;9.93;7.83;;;18.40;91.30;;;;;;5053731;28;20481;-58
2023/08/30 07:12:23;;;;;;;9.97;7.17;;;18.40;91.00;;;;;;5053810;28;20461;-60
2023/08/30 07:14:49;;;;;;;7.60;6.90;;;18.60;90.80;;;;;;5053840;28;20895;-59
2023/08/30 07:17:16;;;;;;;11.17;6.97;;;18.60;90.20;;;;;;5053530;28;20978;-59
2023/08/30 07:19:43;;;;;;;10.87;7.20;;;18.60;90.20;;;;;;5053719;28;20811;-60
2023/08/30 07:22:09;;;;;;;7.60;5.97;;;18.70;90.10;;;;;;5053392;28;20543;-59
2023/08/30 07:24:36;;;;;;;12.57;7.17;;;18.80;90.10;;;;;;5053738;28;20476;-59
2023/08/30 07:27:05;;;;;;;9.53;5.67;;;18.90;89.80;;;;;;5053611;28;20445;-59
2023/08/30 07:29:32;;;;;;;8.13;6.53;;;19.00;89.30;;;;;;5053489;28;20485;-60
2023/08/30 07:31:59;;;;;;;6.40;4.90;;;19.00;89.00;;;;;;5053784;28;20468;-59
2023/08/30 07:34:26;;;;;;;7.57;5.80;;;19.20;88.60;;;;;;5053671;28;20437;-59
2023/08/30 07:36:55;;;;;;;12.17;5.80;;;19.30;88.30;;;;;;5053398;28;20441;-58
2023/08/30 07:39:22;;;;;;;7.67;5.33;;;19.50;88.20;;;;;;5053064;28;20977;-59
2023/08/30 07:41:49;;;;;;;10.73;5.13;;;19.70;87.50;;;;;;5053215;28;20883;-59
2023/08/30 07:44:17;;;;;;;9.10;5.80;;;19.90;85.90;;;;;;5053317;28;20854;-59
2023/08/30 07:46:44;;;;;;;9.47;6.27;;;20.00;82.80;;;;;;5054111;28;20447;-59
2023/08/30 07:49:10;;;;;;;9.70;5.50;;;20.10;80.50;;;;;;5053211;28;20473;-59
2023/08/30 07:51:37;;;;;;;13.20;5.00;;;20.10;80.00;;;;;;5053116;28;20472;-59
2023/08/30 07:54:04;;;;;;;8.33;5.50;;;20.10;80.90;;;;;;5052888;28;20943;-59
2023/08/30 07:56:31;;;;;;;8.83;5.00;;;20.00;79.10;;;;;;5053127;28;20452;-59
2023/08/30 07:58:58;;;;;;;9.70;6.30;;;19.90;79.70;;;;;;5053036;28;20445;-59
2023/08/30 08:01:26;;;;;;;10.10;4.43;;;19.90;79.90;;;;;;5053095;28;20464;-59
2023/08/30 08:03:52;;;;;;;8.60;5.27;;;20.00;80.80;;;;;;5057084;28;20512;-59
2023/08/30 08:06:19;;;;;;;13.20;4.80;;;20.10;81.50;;;;;;5057254;28;20450;-59
2023/08/30 08:08:45;;;;;;;8.60;4.27;;;20.40;79.10;;;;;;5057161;28;20441;-60
2023/08/30 08:11:12;;;;;;;4.43;3.23;;;20.70;77.30;;;;;;5056704;28;21000;-59
2023/08/30 08:13:39;;;;;;;4.97;3.40;;;21.00;77.30;;;;;;5057092;28;20456;-59
2023/08/30 08:16:05;;;;;;;5.00;4.50;;;21.20;75.20;;;;;;5057060;28;20456;-59
2023/08/30 08:18:33;;;;;;;11.93;4.63;;;21.30;73.00;;;;;;5056935;28;20452;-59
2023/08/30 08:21:00;;;;;;;9.07;3.80;;;21.50;72.50;;;;;;5056655;28;20441;-60
2023/08/30 08:23:27;;;;;;;4.87;3.77;;;21.50;72.00;;;;;;5056951;28;20452;-59
2023/08/30 08:25:58;;;;;;;5.73;3.53;;;21.70;71.60;;;;;;5056477;28;20859;-59
2023/08/30 08:28:25;;;;;;;7.93;4.63;;;21.80;70.90;;;;;;5056546;28;20904;-59
2023/08/30 08:30:51;;;;;;;4.67;3.70;;;21.80;70.00;;;;;;5056696;28;20490;-59
2023/08/30 08:33:18;;;;;;;4.53;4.00;;;21.80;72.00;;;;;;5056684;28;20456;-59
2023/08/30 08:35:48;;;;;;;6.07;4.50;;;21.70;70.20;;;;;;5056629;28;20449;-59
2023/08/30 08:38:15;;;;;;;10.30;5.07;;;21.20;73.60;;;;;;5056654;28;20448;-59
2023/08/30 08:40:42;;;;;;;6.23;4.77;;;21.00;78.50;;;;;;5056529;28;20437;-58
2023/08/30 08:43:11;;;;;;;7.70;5.63;;;20.80;79.90;;;;;;5056163;28;21020;-59
2023/08/30 08:45:37;;;;;;;8.90;5.40;;;20.60;79.90;;;;;;5056419;28;20437;-58
2023/08/30 08:48:05;;;;;;;12.50;5.40;;;20.50;82.50;;;;;;5056318;28;20468;-59
2023/08/30 08:50:33;;;;;;;8.17;6.17;;;20.50;82.90;;;;;;5056306;28;20492;-59
2023/08/30 08:53:03;;;;;;;7.07;5.50;;;20.50;81.40;;;;;;5057154;28;20469;-59
2023/08/30 08:55:31;;;;;;;7.13;5.20;;;20.50;81.60;;;;;;5057226;28;20426;-59
2023/08/30 08:57:59;;;;;;;6.53;5.10;;;20.60;81.50;;;;;;5056312;28;20434;-59
2023/08/30 09:00:26;;;;;;;7.50;5.10;;;20.70;81.00;;;;;;5056260;28;20461;-59
2023/08/30 09:02:53;;;;;;;5.37;4.87;;;20.80;79.40;;;;;;5056003;28;20461;-59
2023/08/30 09:05:20;;;;;;;6.43;5.20;;;20.70;78.90;;;;;;5056214;28;20463;-60
2023/08/30 09:07:48;;;;;;;8.80;4.70;;;20.80;79.10;;;;;;5056270;28;20453;-59
2023/08/30 09:10:16;;;;;;;5.37;4.47;;;20.90;77.90;;;;;;5056003;28;20480;-59
2023/08/30 09:12:43;;;;;;;5.43;4.93;;;20.90;79.30;;;;;;5055909;28;20466;-59
2023/08/30 09:15:10;;;;;;;8.30;4.77;;;20.80;77.90;;;;;;5054929;28;20437;-59
2023/08/30 09:17:37;;;;;;;8.97;4.03;;;20.80;77.00;;;;;;5055972;28;20453;-59
2023/08/30 09:20:08;;;;;;;6.50;3.80;;;20.70;76.60;;;;;;5055850;28;20508;-59
2023/08/30 09:22:39;;;;;;;6.20;3.50;;;20.60;75.30;;;;;;5055618;28;20477;-59
2023/08/30 09:25:09;;;;;;;9.30;3.17;;;20.70;77.00;;;;;;5055868;28;20442;-60
2023/08/30 09:27:38;;;;;;;5.30;3.50;;;20.80;77.10;;;;;;5055903;28;20453;-59
2023/08/30 09:30:07;;;;;;;4.13;3.50;;;20.90;76.30;;;;;;5055611;28;20496;-59
2023/08/30 09:32:39;;;;;;;6.57;3.67;;;20.90;75.70;;;;;;5055652;28;20472;-59
2023/08/30 09:35:07;;;;;;;12.53;4.17;;;21.00;76.20;;;;;;5056268;28;20433;-59
2023/08/30 09:37:34;;;;;;;7.67;4.03;;;21.00;75.20;;;;;;5055585;28;20433;-59
2023/08/30 09:40:01;;;;;;;6.73;4.00;;;21.00;75.90;;;;;;5055510;28;20448;-59
2023/08/30 09:42:28;;;;;;;7.83;3.97;;;20.90;77.10;;;;;;5055469;28;20465;-59
2023/08/30 09:44:57;;;;;;;4.37;3.60;;;20.80;75.30;;;;;;5055153;28;20943;-59
2023/08/30 09:47:25;;;;;;;3.20;2.80;;;20.80;76.50;;;;;;5055109;28;20958;-59
2023/08/30 09:49:55;;;;;;;4.17;3.20;;;20.70;76.00;;;;;;5055244;28;20520;-59
2023/08/30 09:52:25;;;;;;;6.37;3.93;;;20.60;76.60;;;;;;5054983;28;20454;-59
2023/08/30 09:54:52;;;;;;;6.03;3.10;;;20.60;78.30;;;;;;5055254;28;20441;-60
2023/08/30 09:57:21;;;;;;;4.30;3.10;;;20.50;77.60;;;;;;5055342;28;20452;-59
2023/08/30 09:59:49;;;;;;;6.17;3.37;;;20.60;77.20;;;;;;5055113;28;20441;-59
2023/08/30 10:02:18;;;;;;;4.13;2.73;;;20.60;76.90;;;;;;5054989;28;20462;-60
2023/08/30 10:04:46;;;;;;;5.93;2.90;;;20.60;76.90;;;;;;5055308;28;20452;-59
2023/08/30 10:07:14;;;;;;;5.80;2.73;;;20.50;77.30;;;;;;5055232;28;20445;-59
2023/08/30 10:09:41;;;;;;;4.90;2.70;;;20.30;78.30;;;;;;5054995;28;20446;-59
2023/08/30 10:12:08;;;;;;;5.23;2.53;;;20.20;78.00;;;;;;5055067;28;20472;-59
2023/08/30 10:14:35;;;;;;;8.90;2.60;;;20.20;77.10;;;;;;5054927;28;20446;-59
2023/08/30 10:17:04;;;;;;;11.37;3.17;;;19.90;77.70;;;;;;5054852;28;20453;-59
2023/08/30 10:19:33;;;;;;;17.13;3.97;;;19.80;79.70;;;;;;5054560;28;20951;-60
2023/08/30 10:22:04;;;;;;;18.83;3.17;;;19.60;80.00;;;;;;5054628;28;20481;-59
2023/08/30 10:24:33;;;;;;;11.90;3.70;;;19.50;81.30;;;;;;5054509;28;20525;-57
2023/08/30 10:27:04;;;;;;;7.30;4.47;;;19.10;89.50;;;;;;5054929;28;20450;-57
2023/08/30 10:29:32;;;;;;;5.07;3.67;;;18.80;91.90;;;;;;5054523;28;20437;-56
2023/08/30 10:32:04;;;;;;;7.30;4.00;;;18.50;93.40;;;;;;5054368;28;20489;-57
2023/08/30 10:34:35;;;;;;;4.40;3.83;;;18.30;94.50;;;;;;5054526;28;20466;-57
2023/08/30 10:37:03;;;;;;;7.90;3.87;;;18.30;95.50;;;;;;5056023;28;20434;-57
2023/08/30 10:39:37;;;;;;;4.07;3.77;;;18.10;95.70;;;;;;5059786;28;20512;-57
2023/08/30 10:42:09;;;;;;;4.50;3.30;;;18.10;96.40;;;;;;5059001;28;20473;-56
2023/08/30 10:44:47;;;;;;;3.60;3.30;;;18.00;96.60;;;;;;5054629;28;20461;-56
2023/08/30 10:47:19;;;;;;;5.43;3.40;;;17.90;97.10;;;;;;5054323;28;20432;-56
2023/08/30 10:49:49;;;;;;;3.63;3.30;;;17.90;97.60;;;;;;5054613;28;20427;-56
2023/08/30 10:52:16;;;;;;;4.30;3.67;;;17.80;97.80;;;;;;5053901;28;20458;-57
2023/08/30 10:54:43;;;;;;;3.53;3.27;;;17.80;98.20;;;;;;5054139;28;20437;-56
2023/08/30 10:57:14;;;;;;;4.20;3.20;;;17.90;98.50;;;;;;5054125;28;20450;-57
2023/08/30 10:59:41;;;;;;;4.73;4.37;;;18.00;98.70;;;;;;5059474;28;20802;-58
2023/08/30 11:02:08;;;;;;;4.20;3.80;;;18.00;98.40;;;;;;5073737;28;20518;-58
2023/08/30 11:04:41;;;;;;;4.83;4.43;;;18.20;98.70;;;;;;5073878;28;20437;-58
2023/08/30 11:07:11;;;;;;;5.00;4.50;;;18.40;98.40;;;;;;5073820;28;20449;-58
2023/08/30 11:09:40;;;;;;;5.10;4.60;;;18.40;97.90;;;;;;5073518;28;20934;-58
2023/08/30 11:12:07;;;;;;;4.73;4.33;;;18.50;97.80;;;;;;5073606;28;20492;-58
2023/08/30 11:14:34;;;;;;;5.00;4.60;;;18.50;97.50;;;;;;5073709;28;20441;-59
2023/08/30 11:17:00;;;;;;;7.60;5.30;;;18.50;97.30;;;;;;5073686;28;20448;-59
2023/08/30 11:19:30;;;;;;;6.63;4.97;;;18.50;97.30;;;;;;5073719;28;20448;-58
2023/08/30 11:21:57;;;;;;;6.50;5.10;;;18.50;97.60;;;;;;5073289;28;20503;-58
2023/08/30 11:24:25;;;;;;;5.10;4.60;;;18.60;98.20;;;;;;5073646;28;20445;-58
2023/08/30 11:26:54;;;;;;;5.80;5.23;;;18.50;97.50;;;;;;5073623;28;20861;-58
2023/08/30 11:29:21;;;;;;;6.07;5.30;;;18.50;97.90;;;;;;5073577;28;20468;-56
2023/08/30 11:31:47;;;;;;;5.20;4.70;;;18.50;98.40;;;;;;5073171;28;20488;-57
2023/08/30 11:34:14;;;;;;;5.80;5.20;;;18.50;98.30;;;;;;5073582;28;20441;-57
2023/08/30 11:36:41;;;;;;;8.17;4.37;;;18.50;98.70;;;;;;5073559;28;20758;-57
2023/08/30 11:39:08;;;;;;;4.60;4.20;;;18.50;98.50;;;;;;5073367;28;20456;-58
2023/08/30 11:41:39;;;;;;;4.13;3.67;;;18.50;98.10;;;;;;5073270;28;20465;-57
2023/08/30 11:44:06;;;;;;;4.63;4.23;;;18.40;98.00;;;;;;5073158;28;20432;-58
2023/08/30 11:46:32;;;;;;;4.67;4.27;;;18.40;98.50;;;;;;5072606;28;20452;-60
2023/08/30 11:48:59;;;;;;;4.33;3.83;;;18.40;98.70;;;;;;5052938;28;20475;-58
2023/08/30 11:51:26;;;;;;;5.10;4.70;;;18.40;98.90;;;;;;5053150;28;20524;-57
2023/08/30 11:53:54;;;;;;;4.10;3.80;;;18.40;99.00;;;;;;5053323;28;20457;-56
2023/08/30 11:56:21;;;;;;;4.50;4.10;;;18.40;99.10;;;;;;5053200;28;20441;-56
2023/08/30 11:58:49;;;;;;;4.63;4.23;;;18.40;99.30;;;;;;5053047;28;20935;-57
2023/08/30 12:01:15;;;;;;;4.13;3.80;;;18.40;99.80;;;;;;5053224;28;20465;-58
2023/08/30 12:03:42;;;;;;;5.07;3.90;;;18.40;99.60;;;;;;5053259;28;20442;-58
2023/08/30 12:06:12;;;;;;;4.40;4.10;;;18.30;99.60;;;;;;5053547;28;20813;-58
2023/08/30 12:08:39;;;;;;;4.30;3.83;;;18.10;99.70;;;;;;5053590;28;20446;-58
2023/08/30 12:11:06;;;;;;;4.23;3.83;;;18.00;99.90;;;;;;5052774;28;20994;-58
2023/08/30 12:13:34;;;;;;;3.80;3.50;;;18.10;99.90;;;;;;5053120;28;20872;-58
2023/08/30 12:16:03;;;;;;;3.33;3.10;;;18.30;99.90;;;;;;5052847;28;20445;-56
2023/08/30 12:18:33;;;;;;;3.27;3.07;;;18.50;99.90;;;;;;5053177;28;20467;-57
2023/08/30 12:21:00;;;;;;;3.10;2.80;;;18.60;99.80;;;;;;5052927;28;20429;-59
2023/08/30 12:23:29;;;;;;;2.30;2.10;;;18.70;99.10;;;;;;5053237;28;20433;-58
2023/08/30 12:25:59;;;;;;;3.07;2.87;;;18.70;99.00;;;;;;5053132;28;20437;-57
2023/08/30 12:28:26;;;;;;;3.10;2.90;;;18.60;99.10;;;;;;5052904;28;20442;-58
2023/08/30 12:30:53;;;;;;;3.30;2.70;;;18.60;99.40;;;;;;5052807;28;20485;-58
2023/08/30 12:33:22;;;;;;;2.20;2.10;;;18.50;99.20;;;;;;5052397;28;20885;-59
2023/08/30 12:35:49;;;;;;;2.77;2.33;;;18.40;99.20;;;;;;5052890;28;20446;-58
2023/08/30 12:38:17;;;;;;;2.30;2.20;;;18.40;99.10;;;;;;5052782;28;20437;-57
2023/08/30 12:40:45;;;;;;;2.13;2.03;;;18.40;99.60;;;;;;5052860;28;20853;-57